Time;durP1;ratioP1;P1;durP2;ratioP2;P2;SDS_P1;SDS_P2;PMS_P1;PMS_P2;Temp;Humidity;BMP_temperature;BMP_pressure;BME280_temperature;BME280_humidity;BME280_pressure;Samples;Min_cycle;Max_cycle;Signal;HPM_P1;HPM_P2
2022/07/25 00:00:15;;;;;;;5.50;3.83;;;22.70;99.90;;;;;;5122715;27;20113;-85
2022/07/25 00:02:41;;;;;;;5.50;4.47;;;22.70;99.90;;;;;;5139930;27;20478;-84
2022/07/25 00:05:07;;;;;;;6.27;4.57;;;22.70;99.90;;;;;;5122909;27;20272;-84
2022/07/25 00:07:32;;;;;;;7.37;4.60;;;22.70;99.90;;;;;;5122701;27;20069;-83
2022/07/25 00:09:58;;;;;;;4.70;4.20;;;22.90;99.90;;;;;;5158321;27;20049;-84
2022/07/25 00:12:24;;;;;;;5.33;4.27;;;22.60;99.90;;;;;;5122344;27;20051;-84
2022/07/25 00:14:49;;;;;;;5.40;4.90;;;22.70;99.90;;;;;;5122594;27;20047;-85
2022/07/25 00:17:15;;;;;;;5.37;4.50;;;22.50;99.90;;;;;;5122619;27;20069;-85
2022/07/25 00:19:40;;;;;;;5.90;4.73;;;22.50;99.90;;;;;;5139686;27;20035;-85
2022/07/25 00:22:06;;;;;;;5.27;4.77;;;22.70;99.90;;;;;;5139780;27;20045;-85
2022/07/25 00:24:32;;;;;;;5.97;4.77;;;22.40;99.90;;;;;;5157986;27;20030;-85
2022/07/25 00:26:58;;;;;;;7.53;5.67;;;22.30;99.90;;;;;;5157969;27;20037;-84
2022/07/25 00:29:23;;;;;;;6.13;5.60;;;22.20;99.90;;;;;;5122282;27;20035;-85
2022/07/25 00:31:49;;;;;;;7.23;6.13;;;22.60;99.90;;;;;;5139314;27;20121;-84
2022/07/25 00:34:14;;;;;;;7.87;5.63;;;22.30;99.90;;;;;;5139455;27;20031;-85
2022/07/25 00:36:40;;;;;;;7.53;5.63;;;22.40;99.90;;;;;;5122274;27;20048;-85
2022/07/25 00:39:06;;;;;;;7.17;6.10;;;21.90;99.90;;;;;;5139389;27;20046;-85
2022/07/25 00:41:31;;;;;;;7.07;6.33;;;22.30;99.90;;;;;;5121830;27;20398;-85
2022/07/25 00:43:57;;;;;;;9.03;7.00;;;22.00;99.90;;;;;;5157676;27;20042;-85
2022/07/25 00:46:23;;;;;;;7.30;6.30;;;22.10;99.90;;;;;;5121756;27;20549;-85
2022/07/25 00:48:48;;;;;;;7.47;6.77;;;22.10;99.90;;;;;;5120741;27;20045;-85
2022/07/25 00:51:15;;;;;;;7.13;6.43;;;22.10;99.90;;;;;;5121694;27;20035;-83
2022/07/25 00:53:41;;;;;;;9.15;7.07;;;22.10;99.90;;;;;;5121566;27;20042;-86
2022/07/25 00:56:07;;;;;;;8.43;5.95;;;22.10;99.90;;;;;;5157417;27;20163;-85
2022/07/25 00:58:33;;;;;;;6.25;5.53;;;22.00;99.90;;;;;;5138457;27;20046;-85
2022/07/25 01:01:00;;;;;;;8.43;6.25;;;22.10;99.90;;;;;;5121145;27;20035;-85
2022/07/25 01:03:25;;;;;;;8.63;6.40;;;22.30;99.90;;;;;;5157274;27;20041;-84
2022/07/25 01:05:51;;;;;;;7.37;6.20;;;22.20;99.90;;;;;;5121297;27;20031;-85
2022/07/25 01:08:21;;;;;;;10.80;6.40;;;22.00;99.90;;;;;;5157104;27;20038;-85
2022/07/25 01:10:47;;;;;;;8.05;6.55;;;21.90;99.90;;;;;;5121139;27;20486;-85
2022/07/25 01:13:13;;;;;;;7.07;6.35;;;22.20;99.90;;;;;;5138246;27;20086;-85
2022/07/25 01:15:39;;;;;;;8.30;7.05;;;22.00;99.90;;;;;;5138271;27;20505;-85
2022/07/25 01:18:05;;;;;;;10.33;7.27;;;22.10;99.90;;;;;;5121067;27;20035;-85
2022/07/25 01:20:31;;;;;;;7.40;6.10;;;21.90;99.90;;;;;;5138108;27;20042;-85
2022/07/25 01:22:58;;;;;;;9.00;7.07;;;22.10;99.90;;;;;;5121113;27;20084;-85
2022/07/25 01:25:25;;;;;;;7.78;6.78;;;22.10;99.90;;;;;;5120909;27;20031;-84
2022/07/25 01:27:52;;;;;;;;;;;21.90;99.90;;;;;;5138806;27;20378;-84
2022/07/25 01:30:18;;;;;;;8.57;7.03;;;22.00;99.90;;;;;;5120856;27;19968;-84
2022/07/25 01:32:45;;;;;;;9.05;7.00;;;22.10;99.90;;;;;;5120699;27;20117;-84
2022/07/25 01:35:11;;;;;;;7.63;6.90;;;21.90;99.90;;;;;;5137897;27;20466;-84
2022/07/25 01:37:37;;;;;;;8.68;7.80;;;21.80;99.90;;;;;;5138217;27;20482;-84
2022/07/25 01:40:04;;;;;;;7.60;6.83;;;21.80;99.90;;;;;;5138144;27;20034;-85
2022/07/25 01:42:30;;;;;;;9.02;7.82;;;21.70;99.90;;;;;;5120815;27;20624;-85
2022/07/25 01:44:55;;;;;;;8.38;7.57;;;21.90;99.90;;;;;;5137708;27;20039;-84
2022/07/25 01:47:21;;;;;;;9.07;7.53;;;21.60;99.90;;;;;;5137698;27;20371;-84
2022/07/25 01:49:47;;;;;;;10.00;7.47;;;21.60;99.90;;;;;;5120601;27;20035;-84
2022/07/25 01:52:13;;;;;;;12.07;7.50;;;21.50;99.90;;;;;;5120566;27;20031;-84
2022/07/25 01:54:39;;;;;;;9.00;8.10;;;21.60;99.90;;;;;;5120354;27;20406;-84
2022/07/25 01:57:05;;;;;;;9.55;8.32;;;21.60;99.90;;;;;;5137713;27;20035;-83
2022/07/25 01:59:31;;;;;;;8.95;7.88;;;21.50;99.90;;;;;;5155776;27;20030;-84
2022/07/25 02:01:56;;;;;;;10.90;7.90;;;21.50;99.90;;;;;;5120253;27;20046;-84
2022/07/25 02:04:22;;;;;;;9.63;8.30;;;21.50;99.90;;;;;;5120332;27;20038;-84
2022/07/25 02:06:48;;;;;;;9.30;8.37;;;21.20;99.90;;;;;;5137432;27;20066;-84
2022/07/25 02:09:14;;;;;;;9.40;8.40;;;21.30;99.90;;;;;;5137646;27;20030;-85
2022/07/25 02:11:39;;;;;;;13.03;9.00;;;21.30;99.90;;;;;;5137320;27;20501;-84
2022/07/25 02:14:05;;;;;;;9.40;8.40;;;21.30;99.90;;;;;;5137496;27;20071;-84
2022/07/25 02:16:31;;;;;;;9.53;8.40;;;21.60;99.90;;;;;;5155917;27;20030;-84
2022/07/25 02:18:56;;;;;;;10.27;8.57;;;21.60;99.90;;;;;;5137328;27;20504;-84
2022/07/25 02:21:22;;;;;;;11.00;8.67;;;21.60;99.90;;;;;;5137020;27;20087;-83
2022/07/25 02:23:47;;;;;;;10.10;9.10;;;20.90;99.90;;;;;;5137056;27;20041;-83
2022/07/25 02:26:14;;;;;;;12.37;10.07;;;21.20;99.90;;;;;;5155707;27;20031;-84
2022/07/25 02:28:40;;;;;;;11.27;9.50;;;21.20;99.90;;;;;;5136920;27;20034;-83
2022/07/25 02:31:06;;;;;;;11.25;9.63;;;21.20;99.90;;;;;;5119993;27;20478;-82
2022/07/25 02:33:31;;;;;;;10.53;8.93;;;21.20;99.90;;;;;;5155466;27;20050;-82
2022/07/25 02:35:57;;;;;;;10.63;9.60;;;21.20;99.90;;;;;;5119800;27;20049;-82
2022/07/25 02:38:23;;;;;;;10.60;9.60;;;21.30;99.90;;;;;;5119906;27;20037;-83
2022/07/25 02:40:50;;;;;;;11.60;9.23;;;21.10;99.90;;;;;;5137016;27;20068;-83
2022/07/25 02:43:17;;;;;;;12.27;10.10;;;21.00;99.90;;;;;;5136746;27;20612;-83
2022/07/25 02:45:42;;;;;;;12.98;9.50;;;21.10;99.90;;;;;;5119615;27;20038;-83
2022/07/25 02:48:08;;;;;;;12.97;9.63;;;21.00;99.90;;;;;;5137006;27;20035;-83
2022/07/25 02:50:34;;;;;;;10.40;9.30;;;21.10;99.90;;;;;;5119823;27;20043;-84
2022/07/25 02:53:00;;;;;;;10.82;9.68;;;21.10;99.90;;;;;;5136830;27;20031;-84
2022/07/25 02:55:26;;;;;;;11.77;9.63;;;21.00;99.90;;;;;;5137033;27;20052;-84
2022/07/25 02:57:51;;;;;;;11.30;9.67;;;21.00;99.90;;;;;;5155300;27;20042;-84
2022/07/25 03:00:17;;;;;;;10.17;9.17;;;20.90;99.90;;;;;;5136873;27;20562;-84
2022/07/25 03:02:43;;;;;;;12.20;9.00;;;20.90;99.90;;;;;;5136899;27;20121;-84
2022/07/25 03:05:10;;;;;;;10.43;9.43;;;20.90;99.90;;;;;;5136682;27;20034;-84
2022/07/25 03:07:37;;;;;;;11.80;9.18;;;20.90;99.90;;;;;;5136775;27;20032;-84
2022/07/25 03:10:05;;;;;;;10.00;9.00;;;20.90;99.90;;;;;;5136753;27;20068;-84
2022/07/25 03:12:34;;;;;;;10.68;9.02;;;20.90;99.90;;;;;;5139510;27;20145;-84
2022/07/25 03:15:00;;;;;;;10.68;9.68;;;20.80;99.90;;;;;;5140980;27;20042;-84
2022/07/25 03:17:27;;;;;;;;;;;20.80;99.90;;;;;;5123947;27;20475;-84
2022/07/25 03:19:55;;;;;;;12.23;9.10;;;20.80;99.90;;;;;;5159247;27;19915;-84
2022/07/25 03:22:22;;;;;;;10.43;8.90;;;20.80;99.90;;;;;;5123278;27;20034;-84
2022/07/25 03:24:48;;;;;;;10.95;9.50;;;20.70;99.90;;;;;;5140583;27;20126;-84
2022/07/25 03:27:13;;;;;;;10.33;9.17;;;20.70;99.90;;;;;;5140779;27;20066;-84
2022/07/25 03:29:39;;;;;;;9.37;8.53;;;20.70;99.90;;;;;;5123122;27;20026;-84
2022/07/25 03:32:05;;;;;;;11.43;9.43;;;20.80;99.90;;;;;;5140379;27;20034;-84
2022/07/25 03:34:31;;;;;;;11.77;8.98;;;20.70;99.90;;;;;;5140331;27;20035;-83
2022/07/25 03:36:57;;;;;;;11.40;8.93;;;20.70;99.90;;;;;;5140414;27;20041;-84
2022/07/25 03:39:23;;;;;;;12.27;9.40;;;20.70;99.90;;;;;;5123263;27;20055;-83
2022/07/25 03:41:49;;;;;;;9.80;8.73;;;20.80;99.90;;;;;;5139981;27;20081;-85
2022/07/25 03:44:15;;;;;;;10.82;9.68;;;20.70;99.90;;;;;;5140054;27;20074;-83
2022/07/25 03:46:40;;;;;;;10.87;9.50;;;20.80;99.90;;;;;;5123001;27;20034;-83
2022/07/25 03:49:06;;;;;;;9.33;8.43;;;20.70;99.90;;;;;;5158480;27;20068;-85
2022/07/25 03:51:31;;;;;;;10.40;9.30;;;20.90;99.90;;;;;;5158748;27;20030;-85
2022/07/25 03:54:03;;;;;;;10.40;9.40;;;20.70;99.90;;;;;;5123071;27;20069;-84
2022/07/25 03:56:29;;;;;;;10.25;9.35;;;20.70;99.90;;;;;;5140188;27;20045;-84
2022/07/25 03:58:55;;;;;;;10.63;9.00;;;20.90;99.90;;;;;;5140091;27;20129;-85
2022/07/25 04:01:20;;;;;;;12.10;9.27;;;20.80;99.90;;;;;;5139736;27;20042;-85
2022/07/25 04:03:46;;;;;;;10.57;9.47;;;20.80;99.90;;;;;;5122721;27;20091;-84
2022/07/25 04:06:12;;;;;;;10.87;9.40;;;20.40;99.90;;;;;;5158469;27;20031;-83
2022/07/25 04:08:37;;;;;;;10.33;9.23;;;20.60;99.90;;;;;;5122412;27;20043;-83
2022/07/25 04:11:03;;;;;;;11.43;10.33;;;20.60;99.90;;;;;;5139894;27;20110;-84
2022/07/25 04:13:29;;;;;;;12.20;9.67;;;20.60;99.90;;;;;;5139479;27;20062;-84
2022/07/25 04:15:55;;;;;;;11.67;9.40;;;20.60;99.90;;;;;;5122413;27;20038;-84
2022/07/25 04:18:20;;;;;;;10.13;9.23;;;20.60;99.90;;;;;;5122425;27;20042;-84
2022/07/25 04:20:46;;;;;;;9.93;8.90;;;20.70;99.90;;;;;;5139516;27;20045;-85
2022/07/25 04:23:12;;;;;;;10.17;9.13;;;20.60;99.90;;;;;;5139494;27;20387;-84
2022/07/25 04:25:37;;;;;;;14.43;10.17;;;20.70;99.90;;;;;;5139556;27;20038;-83
2022/07/25 04:28:03;;;;;;;10.83;9.90;;;20.60;99.90;;;;;;5122479;27;20125;-83
2022/07/25 04:30:29;;;;;;;10.87;9.87;;;20.60;99.90;;;;;;5122073;27;20038;-83
2022/07/25 04:32:55;;;;;;;11.07;9.97;;;20.50;99.90;;;;;;5139520;27;20046;-84
2022/07/25 04:35:20;;;;;;;12.15;9.88;;;20.60;99.90;;;;;;5122008;27;20041;-83
2022/07/25 04:37:46;;;;;;;11.00;9.50;;;20.60;99.90;;;;;;5122454;27;20064;-84
2022/07/25 04:40:12;;;;;;;11.83;10.40;;;20.60;99.90;;;;;;5157717;27;20035;-84
2022/07/25 04:42:37;;;;;;;13.30;9.73;;;20.70;99.90;;;;;;5138956;27;20482;-84
2022/07/25 04:45:03;;;;;;;10.27;9.27;;;20.70;99.90;;;;;;5139305;27;20434;-83
2022/07/25 04:47:29;;;;;;;10.90;9.33;;;20.80;99.90;;;;;;5139487;27;20027;-84
2022/07/25 04:49:54;;;;;;;9.90;8.77;;;20.90;99.90;;;;;;5121757;27;20278;-85
2022/07/25 04:52:20;;;;;;;11.17;10.03;;;20.90;99.90;;;;;;5121656;27;20038;-84
2022/07/25 04:54:45;;;;;;;11.53;9.87;;;21.00;99.90;;;;;;5138921;27;20034;-85
2022/07/25 04:57:11;;;;;;;10.73;9.67;;;21.40;99.90;;;;;;5138802;27;20383;-85
2022/07/25 04:59:37;;;;;;;10.60;9.60;;;21.10;99.90;;;;;;5121862;27;20031;-84
2022/07/25 05:02:02;;;;;;;10.40;9.27;;;21.40;99.90;;;;;;5157316;27;20035;-84
2022/07/25 05:04:28;;;;;;;13.33;10.27;;;21.20;99.90;;;;;;5138916;27;20080;-85
2022/07/25 05:06:53;;;;;;;10.73;9.63;;;21.30;99.90;;;;;;5138858;27;20098;-84
2022/07/25 05:09:19;;;;;;;11.07;9.63;;;21.30;99.90;;;;;;5138498;27;20038;-85
2022/07/25 05:11:44;;;;;;;12.00;9.20;;;21.40;99.90;;;;;;5121113;27;20598;-84
2022/07/25 05:14:10;;;;;;;11.53;9.87;;;21.40;99.90;;;;;;5138708;27;20049;-86
2022/07/25 05:16:36;;;;;;;11.03;9.93;;;21.60;99.90;;;;;;5121375;27;20031;-89
2022/07/25 05:19:01;;;;;;;11.07;9.80;;;21.50;99.90;;;;;;5156959;27;20038;-86
2022/07/25 05:21:27;;;;;;;13.40;9.80;;;21.50;99.90;;;;;;5121131;27;20107;-84
2022/07/25 05:23:52;;;;;;;14.37;10.63;;;21.60;99.90;;;;;;5138481;27;20425;-85
2022/07/25 05:26:18;;;;;;;10.90;9.87;;;21.50;99.90;;;;;;5121280;27;20095;-83
2022/07/25 05:28:44;;;;;;;11.60;10.20;;;21.70;99.90;;;;;;5156917;27;20474;-81
2022/07/25 05:31:09;;;;;;;13.03;10.27;;;21.70;99.90;;;;;;5138005;27;20034;-86
2022/07/25 05:33:35;;;;;;;11.33;10.13;;;21.80;99.90;;;;;;5137644;27;20091;-83
2022/07/25 05:36:02;;;;;;;10.97;9.83;;;21.80;99.90;;;;;;5138347;27;20368;-88
2022/07/25 05:38:28;;;;;;;12.48;9.50;;;21.70;99.90;;;;;;5120803;27;20604;-85
2022/07/25 05:40:54;;;;;;;13.18;9.35;;;22.10;99.90;;;;;;5156511;27;20088;-82
2022/07/25 05:43:19;;;;;;;10.40;8.93;;;22.10;99.90;;;;;;5156366;27;20118;-85
2022/07/25 05:45:48;;;;;;;11.00;9.83;;;22.10;99.90;;;;;;5137783;27;20034;-83
2022/07/25 05:48:14;;;;;;;10.50;9.38;;;22.20;99.90;;;;;;5137996;27;20057;-83
2022/07/25 05:50:40;;;;;;;11.73;9.35;;;22.30;99.90;;;;;;5120662;27;20122;-87
2022/07/25 05:53:05;;;;;;;10.47;8.93;;;22.40;99.90;;;;;;5138086;27;20034;-88
2022/07/25 05:55:31;;;;;;;10.98;8.10;;;22.50;99.90;;;;;;5120630;27;20091;-85
2022/07/25 05:57:57;;;;;;;9.97;8.47;;;22.80;99.90;;;;;;5120925;27;20452;-84
2022/07/25 06:00:23;;;;;;;11.03;8.80;;;22.90;99.90;;;;;;5137515;27;20042;-83
2022/07/25 06:02:48;;;;;;;9.13;8.07;;;23.00;99.90;;;;;;5156153;27;20049;-83
2022/07/25 06:05:14;;;;;;;9.67;8.40;;;23.30;99.90;;;;;;5156071;27;20031;-86
2022/07/25 06:07:40;;;;;;;10.00;8.70;;;23.20;99.90;;;;;;5137848;27;20317;-86
2022/07/25 06:10:06;;;;;;;9.35;8.40;;;23.30;99.90;;;;;;5156261;27;20087;-86
2022/07/25 06:12:32;;;;;;;8.82;8.02;;;23.40;99.90;;;;;;5137588;27;20053;-81
2022/07/25 06:14:59;;;;;;;11.43;8.30;;;23.70;99.90;;;;;;5137529;27;20121;-85
2022/07/25 06:17:24;;;;;;;;;;;23.80;99.90;;;;;;5137608;27;20038;-86
2022/07/25 06:19:50;;;;;;;11.45;8.18;;;24.10;99.90;;;;;;5120632;27;20338;-84
2022/07/25 06:22:18;;;;;;;11.27;8.17;;;24.30;99.90;;;;;;5137525;27;20037;-84
2022/07/25 06:24:44;;;;;;;9.45;7.75;;;24.40;99.90;;;;;;5137143;27;20067;-86
2022/07/25 06:27:10;;;;;;;10.00;7.60;;;24.60;99.90;;;;;;5136918;27;20046;-83
2022/07/25 06:29:36;;;;;;;10.48;7.20;;;24.60;99.90;;;;;;5137094;27;20030;-85
2022/07/25 06:32:02;;;;;;;7.18;6.47;;;24.60;99.90;;;;;;5137183;27;20046;-84
2022/07/25 06:34:27;;;;;;;8.93;7.03;;;24.70;99.90;;;;;;5136871;27;20213;-83
2022/07/25 06:36:53;;;;;;;8.77;7.47;;;24.80;99.90;;;;;;5120040;27;20153;-87
2022/07/25 06:39:19;;;;;;;7.77;6.97;;;24.80;99.90;;;;;;5120219;27;20039;-88
2022/07/25 06:41:44;;;;;;;9.37;6.87;;;24.90;99.90;;;;;;5155326;27;20428;-81
2022/07/25 06:44:10;;;;;;;8.73;7.40;;;24.90;99.90;;;;;;5137039;27;20034;-85
2022/07/25 06:46:36;;;;;;;8.67;7.53;;;24.70;99.90;;;;;;5119668;27;20121;-83
2022/07/25 06:49:04;;;;;;;9.03;7.37;;;24.70;99.90;;;;;;5120031;27;20035;-87
2022/07/25 06:51:29;;;;;;;11.43;7.68;;;24.60;99.90;;;;;;5137029;27;20043;-87
2022/07/25 06:53:55;;;;;;;8.60;6.90;;;24.70;99.90;;;;;;5119511;27;20095;-88
2022/07/25 06:56:21;;;;;;;12.13;7.27;;;24.70;99.90;;;;;;5119694;27;20058;-88
2022/07/25 06:58:47;;;;;;;7.90;7.00;;;24.70;99.90;;;;;;5136991;27;20121;-88
2022/07/25 07:01:12;;;;;;;8.17;6.60;;;24.90;99.90;;;;;;5155372;27;20038;-88
2022/07/25 07:03:39;;;;;;;8.03;6.40;;;25.00;99.90;;;;;;5119645;27;20150;-88
2022/07/25 07:06:07;;;;;;;9.57;6.63;;;25.20;99.90;;;;;;5136990;27;20367;-88
2022/07/25 07:08:33;;;;;;;7.30;6.10;;;25.30;99.90;;;;;;5119318;27;20035;-88
2022/07/25 07:10:58;;;;;;;9.15;6.43;;;25.30;99.90;;;;;;5119599;27;20394;-87
2022/07/25 07:13:24;;;;;;;7.93;6.07;;;25.50;99.90;;;;;;5119433;27;20054;-87
2022/07/25 07:15:50;;;;;;;10.10;6.57;;;25.60;99.90;;;;;;5136896;27;20542;-83
2022/07/25 07:18:17;;;;;;;9.85;6.38;;;25.60;99.90;;;;;;5136514;27;20104;-87
2022/07/25 07:20:43;;;;;;;9.32;6.32;;;25.90;99.90;;;;;;5136388;27;20035;-84
2022/07/25 07:23:09;;;;;;;9.30;6.40;;;26.00;99.90;;;;;;5155960;27;20030;-90
2022/07/25 07:25:34;;;;;;;7.05;5.82;;;26.10;99.90;;;;;;5136946;27;20151;-81
2022/07/25 07:28:00;;;;;;;8.47;6.57;;;26.30;99.90;;;;;;5155017;27;20491;-83
2022/07/25 07:30:26;;;;;;;7.57;6.33;;;26.40;99.90;;;;;;5136654;27;20042;-84
2022/07/25 07:32:51;;;;;;;9.57;6.27;;;26.50;99.90;;;;;;5119310;27;20043;-91
2022/07/25 07:35:18;;;;;;;8.40;6.63;;;26.70;99.90;;;;;;5119398;27;20286;-86
2022/07/25 07:37:44;;;;;;;12.30;7.78;;;26.80;99.90;;;;;;5136447;27;20114;-86
2022/07/25 07:40:12;;;;;;;8.80;7.28;;;26.70;99.90;;;;;;5136030;27;20467;-87
2022/07/25 07:42:43;;;;;;;11.32;7.20;;;26.80;99.90;;;;;;5136710;27;20074;-85
2022/07/25 07:45:20;;;;;;;9.82;6.93;;;26.90;99.90;;;;;;5154613;27;20105;-88
2022/07/25 07:47:47;;;;;;;8.60;7.50;;;27.00;99.90;;;;;;5136769;27;20037;-87
2022/07/25 07:50:15;;;;;;;8.82;7.55;;;27.10;99.90;;;;;;5119465;27;20435;-85
2022/07/25 07:52:41;;;;;;;11.80;8.35;;;27.20;99.90;;;;;;5119474;27;20031;-87
2022/07/25 07:57:52;;;;;;;11.20;8.45;;;27.30;99.90;;;;;;5138387;27;20039;-78
2022/07/25 08:00:18;;;;;;;9.10;8.13;;;27.40;99.90;;;;;;5158436;27;20435;-79
2022/07/25 08:02:45;;;;;;;8.68;7.80;;;27.40;99.90;;;;;;5158562;27;20038;-78
2022/07/25 08:05:12;;;;;;;12.32;7.28;;;27.50;99.90;;;;;;5158413;27;20118;-79
2022/07/25 08:07:37;;;;;;;10.30;8.38;;;27.60;99.90;;;;;;5158160;27;20042;-81
2022/07/25 08:10:04;;;;;;;8.57;6.93;;;27.70;99.90;;;;;;5158198;27;20031;-85
2022/07/25 08:12:29;;;;;;;8.55;7.57;;;27.80;99.90;;;;;;5139341;27;20046;-86
2022/07/25 08:14:55;;;;;;;9.07;7.47;;;27.90;99.90;;;;;;5122442;27;20064;-85
2022/07/25 08:17:20;;;;;;;7.80;7.00;;;27.80;99.90;;;;;;5158388;27;20035;-84
2022/07/25 08:19:46;;;;;;;8.37;6.83;;;27.90;99.90;;;;;;5139896;27;20027;-87
2022/07/25 08:22:11;;;;;;;8.23;6.93;;;27.90;99.90;;;;;;5139639;27;20535;-88
2022/07/25 08:24:37;;;;;;;6.80;5.87;;;27.80;99.90;;;;;;5139787;27;20083;-86
2022/07/25 08:27:03;;;;;;;10.63;7.23;;;27.80;99.90;;;;;;5122395;27;20058;-86
2022/07/25 08:29:28;;;;;;;10.50;7.70;;;27.80;99.90;;;;;;5138273;27;20031;-85
2022/07/25 08:31:54;;;;;;;9.70;6.97;;;27.90;99.90;;;;;;5120755;27;20046;-84
2022/07/25 08:34:21;;;;;;;10.97;6.90;;;27.80;99.90;;;;;;5139480;27;20317;-84
2022/07/25 08:36:47;;;;;;;7.35;6.63;;;27.80;99.90;;;;;;5157824;27;20046;-84
2022/07/25 08:39:13;;;;;;;8.88;6.53;;;27.70;99.90;;;;;;5157909;27;20031;-86
2022/07/25 08:41:42;;;;;;;10.95;7.75;;;27.60;99.90;;;;;;5157552;27;20038;-85
2022/07/25 08:44:08;;;;;;;10.15;7.50;;;27.30;99.90;;;;;;5139123;27;20041;-86
2022/07/25 08:46:35;;;;;;;8.68;6.43;;;27.10;99.90;;;;;;5157753;27;20035;-85
2022/07/25 08:49:01;;;;;;;9.45;7.13;;;27.30;99.90;;;;;;5121896;27;20034;-85
2022/07/25 08:51:27;;;;;;;9.93;8.07;;;27.00;99.90;;;;;;5139179;27;20046;-85
2022/07/25 08:53:53;;;;;;;11.33;8.07;;;26.90;99.90;;;;;;5122013;27;20034;-87
2022/07/25 08:56:19;;;;;;;;;;;26.80;99.90;;;;;;5139314;27;20280;-85
2022/07/25 08:58:45;;;;;;;8.82;6.63;;;26.80;99.90;;;;;;5138963;27;19915;-88
2022/07/25 09:01:11;;;;;;;9.53;5.80;;;26.60;99.90;;;;;;5138713;27;20041;-86
2022/07/25 09:03:37;;;;;;;8.30;5.00;;;26.70;99.90;;;;;;5157466;27;20118;-87
2022/07/25 09:06:21;;;;;;;7.50;4.60;;;26.70;99.90;;;;;;5157377;27;20034;-86
2022/07/25 09:08:51;;;;;;;7.47;4.53;;;26.60;99.90;;;;;;5156271;27;20041;-85
2022/07/25 09:11:28;;;;;;;5.25;4.60;;;26.60;99.90;;;;;;5139187;27;20045;-87
2022/07/25 09:14:01;;;;;;;9.38;5.00;;;26.50;99.90;;;;;;5121357;27;20383;-90
2022/07/25 09:16:38;;;;;;;7.57;4.65;;;26.50;99.90;;;;;;5138679;27;20134;-87
2022/07/25 09:19:18;;;;;;;6.65;4.32;;;26.40;99.90;;;;;;5138485;27;20079;-86
2022/07/25 09:21:56;;;;;;;6.22;4.07;;;26.40;99.90;;;;;;5138395;27;20035;-84
2022/07/25 09:24:22;;;;;;;5.90;4.30;;;26.30;99.90;;;;;;5138648;27;20412;-85
2022/07/25 09:26:49;;;;;;;6.03;4.00;;;26.40;99.90;;;;;;5138560;27;20042;-85
2022/07/25 09:29:17;;;;;;;5.75;4.20;;;26.30;99.90;;;;;;5138501;27;20045;-84
2022/07/25 09:31:42;;;;;;;6.88;4.22;;;26.40;99.90;;;;;;5121133;27;20039;-87
2022/07/25 09:34:09;;;;;;;5.67;3.87;;;26.30;99.90;;;;;;5121082;27;20031;-86
2022/07/25 09:36:38;;;;;;;;;;;26.40;99.90;;;;;;5138488;27;20074;-88
2022/07/25 09:39:05;;;;;;;6.15;3.83;;;26.20;99.90;;;;;;5137997;27;20434;-84
2022/07/25 09:41:41;;;;;;;4.78;3.50;;;26.20;99.90;;;;;;5137689;27;20070;-85
2022/07/25 09:44:21;;;;;;;4.47;3.65;;;26.20;99.90;;;;;;5156730;27;20043;-86
2022/07/25 09:46:48;;;;;;;5.88;3.80;;;26.10;99.90;;;;;;5120937;27;20118;-84
2022/07/25 09:49:14;;;;;;;4.45;3.40;;;26.10;99.90;;;;;;5156554;27;20035;-86
2022/07/25 09:51:43;;;;;;;6.28;4.07;;;26.10;99.90;;;;;;5137678;27;20038;-87
2022/07/25 09:54:08;;;;;;;5.28;3.70;;;26.20;99.90;;;;;;5120861;27;20043;-86
2022/07/25 09:56:34;;;;;;;5.45;3.90;;;26.30;99.90;;;;;;5137484;27;20047;-85
2022/07/25 09:59:01;;;;;;;6.67;4.30;;;26.30;99.90;;;;;;5120813;27;20039;-84
2022/07/25 10:01:33;;;;;;;7.32;3.22;;;26.40;99.90;;;;;;5156141;27;20288;-84
2022/07/25 10:04:21;;;;;;;8.35;4.00;;;26.50;99.90;;;;;;5137761;27;20043;-85
2022/07/25 10:07:02;;;;;;;6.07;4.85;;;26.50;99.90;;;;;;5137606;27;20038;-84
2022/07/25 10:09:29;;;;;;;7.05;4.38;;;26.50;99.90;;;;;;5137382;27;20092;-87
2022/07/25 10:12:12;;;;;;;5.45;4.18;;;26.50;99.90;;;;;;5120143;27;20490;-84
2022/07/25 10:14:38;;;;;;;5.50;4.30;;;26.60;99.90;;;;;;5137124;27;20115;-83
2022/07/25 10:17:05;;;;;;;6.88;4.43;;;26.80;99.90;;;;;;5137130;27;20042;-85
2022/07/25 10:19:47;;;;;;;;;;;27.00;99.90;;;;;;5137268;27;20038;-84
2022/07/25 10:22:13;;;;;;;10.27;3.83;;;27.00;99.90;;;;;;5136986;27;19969;-84
2022/07/25 10:24:43;;;;;;;;;;;27.00;99.90;;;;;;5120318;27;20042;-84
2022/07/25 10:27:11;;;;;;;5.97;3.03;;;26.90;99.90;;;;;;5119834;27;19915;-84
2022/07/25 10:29:39;;;;;;;3.42;2.72;;;26.80;99.90;;;;;;5137306;27;20389;-84
2022/07/25 10:32:11;;;;;;;3.22;2.53;;;26.60;99.90;;;;;;5137016;27;20060;-85
2022/07/25 10:34:38;;;;;;;5.38;2.28;;;26.50;99.90;;;;;;5137165;27;20043;-84
2022/07/25 10:37:15;;;;;;;3.78;2.10;;;26.40;99.90;;;;;;5137063;27;20462;-85
2022/07/25 10:39:47;;;;;;;3.95;2.40;;;26.30;99.90;;;;;;5155603;27;20043;-85
2022/07/25 10:42:20;;;;;;;3.08;2.20;;;26.30;99.90;;;;;;5155294;27;20531;-84
2022/07/25 10:45:08;;;;;;;3.80;1.90;;;26.30;99.90;;;;;;5136690;27;20035;-85
2022/07/25 10:47:37;;;;;;;3.22;1.67;;;26.30;99.90;;;;;;5136768;27;20034;-84
2022/07/25 10:50:03;;;;;;;5.30;2.10;;;26.40;99.90;;;;;;5136630;27;20038;-85
2022/07/25 10:52:29;;;;;;;5.47;2.20;;;26.50;99.90;;;;;;5155426;27;20039;-87
2022/07/25 10:54:55;;;;;;;;;;;26.60;99.90;;;;;;5137089;27;20479;-84
2022/07/25 10:57:21;;;;;;;4.40;2.20;;;26.70;99.90;;;;;;5155444;27;19915;-85
2022/07/25 10:59:47;;;;;;;4.78;2.10;;;26.90;99.90;;;;;;5155366;27;20139;-85
2022/07/25 11:02:16;;;;;;;2.90;2.10;;;27.00;99.90;;;;;;5119361;27;20121;-85
2022/07/25 11:04:44;;;;;;;2.55;1.73;;;27.10;99.90;;;;;;5119227;27;20034;-85
2022/07/25 11:07:16;;;;;;;3.33;1.92;;;27.00;99.90;;;;;;5136738;27;20426;-85
2022/07/25 11:09:43;;;;;;;4.82;2.00;;;26.90;99.90;;;;;;5119423;27;20027;-84
2022/07/25 11:12:13;;;;;;;3.88;1.80;;;27.10;99.90;;;;;;5136290;27;20062;-84
2022/07/25 11:14:41;;;;;;;3.28;1.77;;;27.00;99.90;;;;;;5119529;27;20501;-85
2022/07/25 11:17:13;;;;;;;4.07;2.10;;;27.00;99.90;;;;;;5136779;27;20391;-85
2022/07/25 11:19:40;;;;;;;3.47;1.90;;;27.20;99.90;;;;;;5136587;27;20047;-85
2022/07/25 11:22:07;;;;;;;8.07;2.00;;;26.90;99.90;;;;;;5136606;27;20084;-84
2022/07/25 11:24:43;;;;;;;;;;;26.90;99.90;;;;;;5136876;27;20042;-84
2022/07/25 11:27:18;;;;;;;5.82;2.00;;;26.70;99.90;;;;;;5136544;27;19915;-86
2022/07/25 11:29:44;;;;;;;6.63;1.63;;;26.50;99.90;;;;;;5136349;27;20054;-84
2022/07/25 11:32:11;;;;;;;3.60;1.93;;;26.30;99.90;;;;;;5137559;27;20587;-84
2022/07/25 11:34:42;;;;;;;2.42;1.50;;;26.20;99.90;;;;;;5124008;27;20053;-84
2022/07/25 11:37:10;;;;;;;2.72;1.52;;;26.00;99.90;;;;;;5159129;27;20043;-85
2022/07/25 11:39:39;;;;;;;3.03;1.67;;;25.90;99.90;;;;;;5140597;27;20085;-84
2022/07/25 11:42:11;;;;;;;4.78;1.70;;;25.90;99.90;;;;;;5158825;27;20049;-83
2022/07/25 11:44:46;;;;;;;4.18;1.50;;;25.90;99.90;;;;;;5123187;27;20191;-84
2022/07/25 11:47:41;;;;;;;3.38;1.70;;;25.90;99.90;;;;;;5140159;27;20052;-83
2022/07/25 11:50:13;;;;;;;5.88;1.65;;;26.10;99.90;;;;;;5102091;27;20115;-84
2022/07/25 11:52:41;;;;;;;4.10;1.40;;;26.20;99.90;;;;;;5122984;27;20091;-87
2022/07/25 11:55:10;;;;;;;2.78;1.50;;;26.30;99.90;;;;;;5123029;27;20424;-84
2022/07/25 11:57:45;;;;;;;2.72;1.42;;;26.30;99.90;;;;;;5139946;27;20034;-83
2022/07/25 12:00:19;;;;;;;2.67;1.60;;;26.40;99.90;;;;;;5122678;27;20027;-85
2022/07/25 12:02:46;;;;;;;4.32;1.45;;;26.40;99.90;;;;;;5140231;27;20364;-83
2022/07/25 12:05:14;;;;;;;6.00;1.73;;;26.30;99.90;;;;;;5139639;27;20121;-86
2022/07/25 12:07:43;;;;;;;3.90;1.75;;;26.20;99.90;;;;;;5158423;27;20038;-84
2022/07/25 12:10:14;;;;;;;4.05;1.52;;;26.30;99.90;;;;;;5158248;27;20038;-83
2022/07/25 12:12:49;;;;;;;4.63;1.80;;;26.10;99.90;;;;;;5158012;27;20055;-85
2022/07/25 12:15:19;;;;;;;5.13;1.63;;;26.00;99.90;;;;;;5122860;27;20046;-84
2022/07/25 12:17:45;;;;;;;4.45;1.60;;;26.10;99.90;;;;;;5139975;27;20094;-85
2022/07/25 12:20:16;;;;;;;6.63;2.20;;;26.10;99.90;;;;;;5139383;27;20105;-84
2022/07/25 12:22:42;;;;;;;6.05;1.95;;;26.10;99.90;;;;;;5139756;27;20058;-87
2022/07/25 12:25:08;;;;;;;4.13;1.70;;;26.20;99.90;;;;;;5139401;27;20035;-85
2022/07/25 12:27:34;;;;;;;;;;;26.10;99.90;;;;;;5158419;27;20041;-85
2022/07/25 12:29:59;;;;;;;6.70;1.73;;;26.20;99.90;;;;;;5139501;27;20002;-85
2022/07/25 12:32:25;;;;;;;4.97;1.80;;;26.20;99.90;;;;;;5139284;27;20038;-86
2022/07/25 12:34:50;;;;;;;4.37;1.70;;;26.20;99.90;;;;;;5157948;27;20107;-85
2022/07/25 12:37:16;;;;;;;4.70;1.57;;;26.30;99.90;;;;;;5139136;27;20034;-84
2022/07/25 12:39:41;;;;;;;5.63;1.67;;;26.50;99.90;;;;;;5157913;27;20027;-85
2022/07/25 12:42:07;;;;;;;5.27;1.80;;;26.30;99.90;;;;;;5121982;27;20043;-85
2022/07/25 12:44:33;;;;;;;4.10;1.80;;;26.30;99.90;;;;;;5157677;27;20030;-85
2022/07/25 12:46:58;;;;;;;3.47;1.80;;;26.20;99.90;;;;;;5139188;27;20389;-87